AFL1943 UAAA-USSS
Flight info
| Callsign | AFL1943 |
|---|---|
| Flight time | 2h 35m |
| Altitude | 32000 |
| Route | TUKTO1A TUKTO DCT TUSEP DCT KST DCT LANOR DCT PESAM PESAM6S |
| Aircraft | A321/M-SDE3FGHIRWY/LB1 |
Departure
| Time | 2026-05-04 18:55 |
|---|---|
| Airport | Almaty International Airport (UAAA) |
Arrival
| Time | 2026-05-04 21:30 |
|---|---|
| Airport | Koltsovo Airport (USSS) |
| Time | Latitude | Longitude | Altitude | Speed | Heading |
|---|---|---|---|---|---|
| 2026-05-04 18:01 | 43.34875 | 77.01355 | 2229 ft | 0 kts | 246° |
| 2026-05-04 18:42 | 43.34877 | 77.01360 | 2229 ft | 3 kts | 246° |
| 2026-05-04 18:42 | 43.34887 | 77.01393 | 2229 ft | 4 kts | 246° |
| 2026-05-04 18:43 | 43.34898 | 77.01427 | 2227 ft | 4 kts | 246° |
| 2026-05-04 18:43 | 43.34907 | 77.01456 | 2226 ft | 4 kts | 239° |
| 2026-05-04 18:43 | 43.34923 | 77.01470 | 2229 ft | 4 kts | 167° |
| 2026-05-04 18:43 | 43.34946 | 77.01458 | 2226 ft | 4 kts | 155° |
| 2026-05-04 18:44 | 43.34970 | 77.01442 | 2227 ft | 4 kts | 154° |
| 2026-05-04 18:44 | 43.34986 | 77.01432 | 2229 ft | 2 kts | 156° |
| 2026-05-04 18:44 | 43.34988 | 77.01431 | 2229 ft | 0 kts | 156° |
| 2026-05-04 18:46 | 43.34986 | 77.01432 | 2229 ft | 0 kts | 156° |
| 2026-05-04 18:46 | 43.34983 | 77.01435 | 2229 ft | 1 kts | 155° |
| 2026-05-04 18:47 | 43.34971 | 77.01442 | 2229 ft | 4 kts | 155° |
| 2026-05-04 18:47 | 43.34928 | 77.01470 | 2229 ft | 10 kts | 155° |
| 2026-05-04 18:47 | 43.34852 | 77.01511 | 2229 ft | 13 kts | 155° |
| 2026-05-04 18:47 | 43.34816 | 77.01603 | 2227 ft | 11 kts | 98° |
| 2026-05-04 18:48 | 43.34811 | 77.01708 | 2227 ft | 13 kts | 93° |
| 2026-05-04 18:48 | 43.34803 | 77.01871 | 2227 ft | 21 kts | 94° |
| 2026-05-04 18:48 | 43.34793 | 77.02083 | 2227 ft | 22 kts | 94° |
| 2026-05-04 18:48 | 43.34783 | 77.02283 | 2226 ft | 20 kts | 94° |
| 2026-05-04 18:49 | 43.34774 | 77.02467 | 2227 ft | 19 kts | 94° |
| 2026-05-04 18:49 | 43.34805 | 77.02657 | 2226 ft | 23 kts | 57° |
| 2026-05-04 18:49 | 43.34900 | 77.02854 | 2227 ft | 26 kts | 56° |
| 2026-05-04 18:49 | 43.35007 | 77.03067 | 2233 ft | 28 kts | 57° |
| 2026-05-04 18:50 | 43.35120 | 77.03302 | 2229 ft | 30 kts | 54° |
| 2026-05-04 18:50 | 43.35245 | 77.03550 | 2227 ft | 33 kts | 57° |
| 2026-05-04 18:50 | 43.35375 | 77.03813 | 2226 ft | 33 kts | 56° |
| 2026-05-04 18:50 | 43.35503 | 77.04063 | 2226 ft | 31 kts | 55° |
| 2026-05-04 18:51 | 43.35618 | 77.04299 | 2226 ft | 28 kts | 56° |
| 2026-05-04 18:51 | 43.35724 | 77.04516 | 2232 ft | 27 kts | 55° |
| 2026-05-04 18:51 | 43.35825 | 77.04716 | 2231 ft | 25 kts | 56° |
| 2026-05-04 18:51 | 43.35921 | 77.04910 | 2226 ft | 23 kts | 55° |
| 2026-05-04 18:52 | 43.36011 | 77.05090 | 2223 ft | 22 kts | 56° |
| 2026-05-04 18:52 | 43.36094 | 77.05256 | 2227 ft | 20 kts | 56° |
| 2026-05-04 18:52 | 43.36167 | 77.05405 | 2225 ft | 18 kts | 55° |
| 2026-05-04 18:52 | 43.36237 | 77.05546 | 2229 ft | 21 kts | 56° |
| 2026-05-04 18:53 | 43.36329 | 77.05732 | 2234 ft | 26 kts | 56° |
| 2026-05-04 18:53 | 43.36429 | 77.05938 | 2231 ft | 20 kts | 56° |
| 2026-05-04 18:53 | 43.36487 | 77.06055 | 2226 ft | 13 kts | 58° |
| 2026-05-04 18:53 | 43.36478 | 77.06144 | 2227 ft | 8 kts | 133° |
| 2026-05-04 18:54 | 43.36426 | 77.06191 | 2229 ft | 11 kts | 161° |
| 2026-05-04 18:54 | 43.36334 | 77.06167 | 2225 ft | 16 kts | 210° |
| 2026-05-04 18:54 | 43.36247 | 77.06024 | 2231 ft | 33 kts | 236° |
| 2026-05-04 18:54 | 43.35980 | 77.05486 | 2231 ft | 100 kts | 236° |
| 2026-05-04 18:55 | 43.35483 | 77.04480 | 2230 ft | 152 kts | 236° |
| 2026-05-04 18:55 | 43.34150 | 77.01716 | 3100 ft | 172 kts | 237° |
| 2026-05-04 18:55 | 43.33504 | 77.00294 | 3623 ft | 180 kts | 236° |
| 2026-05-04 18:56 | 43.32853 | 76.98792 | 4156 ft | 183 kts | 242° |
| 2026-05-04 18:56 | 43.32233 | 76.97294 | 4639 ft | 178 kts | 237° |
| 2026-05-04 18:56 | 43.31543 | 76.95867 | 5017 ft | 180 kts | 235° |
| 2026-05-04 18:56 | 43.31012 | 76.94315 | 5328 ft | 186 kts | 265° |
| 2026-05-04 18:57 | 43.31422 | 76.92604 | 5481 ft | 200 kts | 313° |
| 2026-05-04 18:57 | 43.32603 | 76.91516 | 5629 ft | 212 kts | 333° |
| 2026-05-04 18:57 | 43.33946 | 76.90498 | 5761 ft | 229 kts | 332° |
| 2026-05-04 18:57 | 43.35395 | 76.89376 | 5858 ft | 250 kts | 332° |
| 2026-05-04 18:58 | 43.36970 | 76.88128 | 6098 ft | 269 kts | 331° |
| 2026-05-04 18:58 | 43.38606 | 76.86823 | 6718 ft | 273 kts | 331° |
| 2026-05-04 18:58 | 43.40255 | 76.85508 | 7398 ft | 275 kts | 332° |
| 2026-05-04 18:58 | 43.41913 | 76.84187 | 8036 ft | 276 kts | 331° |
| 2026-05-04 18:59 | 43.43583 | 76.82843 | 8647 ft | 279 kts | 330° |
| 2026-05-04 18:59 | 43.45127 | 76.81184 | 9234 ft | 285 kts | 316° |
| 2026-05-04 18:59 | 43.46343 | 76.79004 | 9820 ft | 291 kts | 300° |
| 2026-05-04 18:59 | 43.47187 | 76.76443 | 10272 ft | 301 kts | 294° |
| 2026-05-04 19:00 | 43.48006 | 76.73689 | 10390 ft | 320 kts | 294° |
| 2026-05-04 19:00 | 43.48867 | 76.70772 | 10514 ft | 338 kts | 293° |
| 2026-05-04 19:00 | 43.49770 | 76.67687 | 10644 ft | 355 kts | 293° |
| 2026-05-04 19:00 | 43.50713 | 76.64472 | 10906 ft | 367 kts | 293° |
| 2026-05-04 19:01 | 43.51865 | 76.61330 | 11405 ft | 369 kts | 304° |
| 2026-05-04 19:01 | 43.53525 | 76.58584 | 11958 ft | 375 kts | 319° |
| 2026-05-04 19:01 | 43.55631 | 76.56473 | 12556 ft | 374 kts | 333° |
| 2026-05-04 19:01 | 43.58004 | 76.55084 | 13071 ft | 377 kts | 343° |
| 2026-05-04 19:02 | 43.60539 | 76.54152 | 13542 ft | 381 kts | 346° |
| 2026-05-04 19:02 | 43.63101 | 76.53305 | 14037 ft | 378 kts | 347° |
| 2026-05-04 19:02 | 43.65674 | 76.52486 | 14373 ft | 383 kts | 347° |
| 2026-05-04 19:02 | 43.68287 | 76.51630 | 14889 ft | 385 kts | 343° |
| 2026-05-04 19:03 | 43.70904 | 76.50803 | 15326 ft | 387 kts | 347° |
| 2026-05-04 19:03 | 43.73556 | 76.49980 | 15785 ft | 390 kts | 347° |
| 2026-05-04 19:03 | 43.76204 | 76.49157 | 16216 ft | 392 kts | 347° |
| 2026-05-04 19:03 | 43.78874 | 76.48318 | 16638 ft | 395 kts | 347° |
| 2026-05-04 19:04 | 43.81563 | 76.47461 | 17061 ft | 398 kts | 347° |
| 2026-05-04 19:04 | 43.84266 | 76.46591 | 17481 ft | 400 kts | 346° |
| 2026-05-04 19:04 | 43.86986 | 76.45706 | 17902 ft | 402 kts | 346° |
| 2026-05-04 19:04 | 43.89721 | 76.44816 | 18298 ft | 404 kts | 346° |
| 2026-05-04 19:05 | 43.92470 | 76.43927 | 18676 ft | 407 kts | 346° |
| 2026-05-04 19:05 | 43.95236 | 76.43032 | 19072 ft | 409 kts | 346° |
| 2026-05-04 19:05 | 43.98022 | 76.42128 | 19457 ft | 412 kts | 346° |
| 2026-05-04 19:05 | 44.00819 | 76.41219 | 19833 ft | 414 kts | 346° |
| 2026-05-04 19:06 | 44.03587 | 76.40101 | 20209 ft | 415 kts | 338° |
| 2026-05-04 19:06 | 44.06164 | 76.38297 | 20570 ft | 416 kts | 327° |
| 2026-05-04 19:06 | 44.08460 | 76.35837 | 20906 ft | 417 kts | 316° |
| 2026-05-04 19:06 | 44.10384 | 76.32818 | 21257 ft | 418 kts | 305° |
| 2026-05-04 19:07 | 44.12009 | 76.29451 | 21597 ft | 420 kts | 303° |
| 2026-05-04 19:07 | 44.13635 | 76.26052 | 21954 ft | 422 kts | 303° |
| 2026-05-04 19:07 | 44.15266 | 76.22649 | 22294 ft | 423 kts | 303° |
| 2026-05-04 19:07 | 44.16904 | 76.19235 | 22618 ft | 425 kts | 303° |
| 2026-05-04 19:08 | 44.18596 | 76.15855 | 22933 ft | 427 kts | 308° |
| 2026-05-04 19:08 | 44.20635 | 76.12834 | 23239 ft | 430 kts | 317° |
| 2026-05-04 19:08 | 44.22949 | 76.10262 | 23434 ft | 424 kts | 321° |
| 2026-05-04 19:08 | 44.25232 | 76.07817 | 23559 ft | 413 kts | 321° |
| 2026-05-04 19:09 | 44.27456 | 76.05370 | 23679 ft | 402 kts | 320° |
| 2026-05-04 19:09 | 44.29626 | 76.02994 | 23796 ft | 391 kts | 321° |
| 2026-05-04 19:09 | 44.31770 | 76.00681 | 23930 ft | 392 kts | 321° |
| 2026-05-04 19:09 | 44.33952 | 75.98337 | 24066 ft | 400 kts | 321° |
| 2026-05-04 19:10 | 44.36175 | 75.95942 | 24192 ft | 407 kts | 321° |
| 2026-05-04 19:10 | 44.38435 | 75.93504 | 24317 ft | 413 kts | 321° |
| 2026-05-04 19:10 | 44.40729 | 75.91021 | 24451 ft | 420 kts | 321° |
| 2026-05-04 19:10 | 44.43052 | 75.88490 | 24573 ft | 426 kts | 321° |
| 2026-05-04 19:11 | 44.45401 | 75.85912 | 24705 ft | 432 kts | 321° |
| 2026-05-04 19:11 | 44.47784 | 75.83296 | 24844 ft | 438 kts | 321° |
| 2026-05-04 19:11 | 44.50194 | 75.80662 | 25064 ft | 440 kts | 321° |
| 2026-05-04 19:11 | 44.52613 | 75.78018 | 25309 ft | 443 kts | 321° |
| 2026-05-04 19:12 | 44.55047 | 75.75354 | 25567 ft | 445 kts | 321° |
| 2026-05-04 19:12 | 44.59931 | 75.69992 | 26075 ft | 448 kts | 321° |
| 2026-05-04 19:12 | 44.62391 | 75.67294 | 26303 ft | 449 kts | 321° |
| 2026-05-04 19:13 | 44.64863 | 75.64585 | 26552 ft | 451 kts | 321° |
| 2026-05-04 19:13 | 44.67339 | 75.61871 | 26803 ft | 452 kts | 321° |
| 2026-05-04 19:13 | 44.69821 | 75.59138 | 27046 ft | 454 kts | 321° |
| 2026-05-04 19:13 | 44.72305 | 75.56399 | 27270 ft | 456 kts | 321° |
| 2026-05-04 19:14 | 44.74805 | 75.53637 | 27519 ft | 457 kts | 321° |
| 2026-05-04 19:14 | 44.77305 | 75.50873 | 27763 ft | 458 kts | 321° |
| 2026-05-04 19:14 | 44.79811 | 75.48093 | 28043 ft | 456 kts | 321° |
| 2026-05-04 19:14 | 44.82299 | 75.45332 | 28316 ft | 456 kts | 321° |
| 2026-05-04 19:15 | 44.84787 | 75.42567 | 28627 ft | 455 kts | 321° |
| 2026-05-04 19:15 | 44.87269 | 75.39806 | 28936 ft | 454 kts | 321° |
| 2026-05-04 19:15 | 44.89746 | 75.37052 | 29253 ft | 453 kts | 321° |
| 2026-05-04 19:15 | 44.92215 | 75.34311 | 29541 ft | 452 kts | 321° |
| 2026-05-04 19:16 | 44.94685 | 75.31575 | 29817 ft | 451 kts | 320° |
| 2026-05-04 19:16 | 44.97143 | 75.28842 | 30104 ft | 449 kts | 320° |
| 2026-05-04 19:16 | 44.99595 | 75.26105 | 30393 ft | 449 kts | 321° |
| 2026-05-04 19:16 | 45.02038 | 75.23374 | 30663 ft | 447 kts | 320° |
| 2026-05-04 19:17 | 45.04472 | 75.20632 | 30928 ft | 447 kts | 320° |
| 2026-05-04 19:17 | 45.06898 | 75.17897 | 31185 ft | 446 kts | 320° |
| 2026-05-04 19:17 | 45.09327 | 75.15171 | 31442 ft | 445 kts | 320° |
| 2026-05-04 19:17 | 45.11751 | 75.12450 | 31696 ft | 445 kts | 320° |
| 2026-05-04 19:18 | 45.14175 | 75.09714 | 31920 ft | 445 kts | 320° |
| 2026-05-04 19:18 | 45.16599 | 75.06983 | 32065 ft | 444 kts | 320° |
| 2026-05-04 19:18 | 45.19013 | 75.04268 | 32093 ft | 442 kts | 320° |
| 2026-05-04 19:19 | 45.23823 | 74.98842 | 32112 ft | 440 kts | 321° |
| 2026-05-04 19:19 | 45.28612 | 74.93434 | 32108 ft | 440 kts | 321° |
| 2026-05-04 19:20 | 45.33395 | 74.88001 | 32115 ft | 440 kts | 321° |
| 2026-05-04 19:20 | 45.38169 | 74.82580 | 32104 ft | 439 kts | 321° |
| 2026-05-04 19:21 | 45.42942 | 74.77156 | 32096 ft | 439 kts | 321° |
| 2026-05-04 19:21 | 45.46907 | 74.72633 | 32102 ft | 440 kts | 321° |
| 2026-05-04 19:22 | 45.51675 | 74.67189 | 32119 ft | 439 kts | 321° |
| 2026-05-04 19:22 | 45.56446 | 74.61714 | 32116 ft | 440 kts | 321° |
| 2026-05-04 19:23 | 45.61209 | 74.56240 | 32132 ft | 439 kts | 321° |
| 2026-05-04 19:23 | 45.65972 | 74.50775 | 32127 ft | 439 kts | 321° |
| 2026-05-04 19:24 | 45.70727 | 74.45302 | 32124 ft | 438 kts | 321° |
| 2026-05-04 19:24 | 45.75467 | 74.39818 | 32125 ft | 438 kts | 321° |
| 2026-05-04 19:25 | 45.80203 | 74.34315 | 32108 ft | 438 kts | 321° |
| 2026-05-04 19:25 | 45.84931 | 74.28805 | 32109 ft | 438 kts | 321° |
| 2026-05-04 19:26 | 45.89663 | 74.23301 | 32119 ft | 438 kts | 322° |
| 2026-05-04 19:26 | 45.94394 | 74.17791 | 32115 ft | 437 kts | 322° |
| 2026-05-04 19:27 | 45.99122 | 74.12269 | 32120 ft | 438 kts | 321° |
| 2026-05-04 19:27 | 46.03833 | 74.06747 | 32121 ft | 437 kts | 322° |
| 2026-05-04 19:28 | 46.08510 | 74.01247 | 32122 ft | 437 kts | 321° |
| 2026-05-04 19:28 | 46.13216 | 73.95715 | 32099 ft | 437 kts | 321° |
| 2026-05-04 19:29 | 46.17926 | 73.90169 | 32099 ft | 437 kts | 321° |
| 2026-05-04 19:29 | 46.22619 | 73.84603 | 32101 ft | 436 kts | 321° |
| 2026-05-04 19:30 | 46.27308 | 73.79031 | 32122 ft | 436 kts | 321° |
| 2026-05-04 19:30 | 46.31997 | 73.73474 | 32120 ft | 435 kts | 321° |
| 2026-05-04 19:31 | 46.36680 | 73.67897 | 32114 ft | 436 kts | 321° |
| 2026-05-04 19:31 | 46.41351 | 73.62315 | 32119 ft | 434 kts | 322° |
| 2026-05-04 19:32 | 46.46018 | 73.56738 | 32087 ft | 434 kts | 321° |
| 2026-05-04 19:32 | 46.50673 | 73.51154 | 32096 ft | 434 kts | 321° |
| 2026-05-04 19:33 | 46.55324 | 73.45565 | 32086 ft | 434 kts | 321° |
| 2026-05-04 19:33 | 46.59941 | 73.40001 | 32101 ft | 433 kts | 321° |
| 2026-05-04 19:34 | 46.64577 | 73.34391 | 32103 ft | 433 kts | 321° |
| 2026-05-04 19:34 | 46.69203 | 73.28791 | 32119 ft | 432 kts | 321° |
| 2026-05-04 19:35 | 46.73829 | 73.23190 | 32114 ft | 432 kts | 321° |
| 2026-05-04 19:35 | 46.78444 | 73.17584 | 32112 ft | 432 kts | 321° |
| 2026-05-04 19:36 | 46.83058 | 73.11954 | 32116 ft | 432 kts | 320° |
| 2026-05-04 19:36 | 46.87661 | 73.06330 | 32102 ft | 431 kts | 320° |
| 2026-05-04 19:37 | 46.92256 | 73.00703 | 32108 ft | 430 kts | 320° |
| 2026-05-04 19:37 | 46.96838 | 72.95054 | 32129 ft | 430 kts | 321° |
| 2026-05-04 19:38 | 47.01411 | 72.89413 | 32123 ft | 430 kts | 320° |
| 2026-05-04 19:38 | 47.05992 | 72.83780 | 32110 ft | 430 kts | 320° |
| 2026-05-04 19:39 | 47.10572 | 72.78131 | 32110 ft | 431 kts | 320° |
| 2026-05-04 19:39 | 47.15152 | 72.72452 | 32108 ft | 430 kts | 320° |
| 2026-05-04 19:40 | 47.19716 | 72.66764 | 32116 ft | 430 kts | 320° |
| 2026-05-04 19:40 | 47.24251 | 72.61117 | 32111 ft | 430 kts | 320° |
| 2026-05-04 19:41 | 47.28824 | 72.55431 | 32123 ft | 430 kts | 320° |
| 2026-05-04 19:41 | 47.33387 | 72.49724 | 32121 ft | 430 kts | 320° |
| 2026-05-04 19:42 | 47.37946 | 72.44015 | 32132 ft | 430 kts | 320° |
| 2026-05-04 19:42 | 47.42503 | 72.38298 | 32130 ft | 430 kts | 319° |
| 2026-05-04 19:43 | 47.47056 | 72.32568 | 32130 ft | 430 kts | 319° |
| 2026-05-04 19:43 | 47.51600 | 72.26833 | 32132 ft | 429 kts | 320° |
| 2026-05-04 19:44 | 47.56149 | 72.21095 | 32133 ft | 430 kts | 319° |
| 2026-05-04 19:44 | 47.60685 | 72.15333 | 32121 ft | 429 kts | 319° |
| 2026-05-04 19:45 | 47.65214 | 72.09561 | 32118 ft | 429 kts | 319° |
| 2026-05-04 19:45 | 47.69737 | 72.03790 | 32112 ft | 428 kts | 319° |
| 2026-05-04 19:46 | 47.74253 | 71.98020 | 32120 ft | 428 kts | 319° |
| 2026-05-04 19:46 | 47.78771 | 71.92232 | 32119 ft | 429 kts | 319° |
| 2026-05-04 19:47 | 47.83289 | 71.86435 | 32125 ft | 429 kts | 319° |
| 2026-05-04 19:47 | 47.87808 | 71.80636 | 32122 ft | 429 kts | 319° |
| 2026-05-04 19:48 | 47.92330 | 71.74813 | 32123 ft | 429 kts | 319° |
| 2026-05-04 19:48 | 47.96834 | 71.68983 | 32125 ft | 428 kts | 319° |
| 2026-05-04 19:49 | 48.01334 | 71.63154 | 32115 ft | 429 kts | 319° |
| 2026-05-04 19:49 | 48.05837 | 71.57309 | 32126 ft | 429 kts | 317° |
| 2026-05-04 19:50 | 48.10337 | 71.51444 | 32128 ft | 429 kts | 318° |
| 2026-05-04 19:50 | 48.14839 | 71.45562 | 32123 ft | 428 kts | 318° |
| 2026-05-04 19:51 | 48.19326 | 71.39696 | 32127 ft | 428 kts | 318° |
| 2026-05-04 19:51 | 48.23808 | 71.33813 | 32124 ft | 428 kts | 318° |
| 2026-05-04 19:52 | 48.28281 | 71.27927 | 32130 ft | 428 kts | 318° |
| 2026-05-04 19:52 | 48.32762 | 71.22031 | 32132 ft | 428 kts | 318° |
| 2026-05-04 19:53 | 48.37243 | 71.16140 | 32150 ft | 428 kts | 317° |
| 2026-05-04 19:53 | 48.41721 | 71.10218 | 32146 ft | 428 kts | 317° |
| 2026-05-04 19:54 | 48.46154 | 71.04317 | 32137 ft | 428 kts | 317° |
| 2026-05-04 19:54 | 48.50615 | 70.98374 | 32130 ft | 428 kts | 317° |
| 2026-05-04 19:55 | 48.55100 | 70.92383 | 32123 ft | 428 kts | 317° |
| 2026-05-04 19:55 | 48.59558 | 70.86410 | 32129 ft | 428 kts | 317° |
| 2026-05-04 19:56 | 48.64022 | 70.80428 | 32127 ft | 429 kts | 317° |
| 2026-05-04 19:56 | 48.68484 | 70.74450 | 32123 ft | 428 kts | 317° |
| 2026-05-04 19:57 | 48.72946 | 70.68442 | 32127 ft | 429 kts | 317° |
| 2026-05-04 19:57 | 48.77400 | 70.62433 | 32103 ft | 429 kts | 316° |
| 2026-05-04 19:58 | 48.81840 | 70.56408 | 32096 ft | 428 kts | 317° |
| 2026-05-04 19:58 | 48.86275 | 70.50377 | 32095 ft | 428 kts | 317° |
| 2026-05-04 19:59 | 48.90674 | 70.44393 | 32098 ft | 427 kts | 317° |
| 2026-05-04 19:59 | 48.95104 | 70.38352 | 32078 ft | 427 kts | 317° |
| 2026-05-04 20:00 | 48.99557 | 70.32269 | 32082 ft | 427 kts | 316° |
| 2026-05-04 20:00 | 49.03954 | 70.26251 | 32095 ft | 427 kts | 316° |
| 2026-05-04 20:01 | 49.08375 | 70.20183 | 32097 ft | 427 kts | 316° |
| 2026-05-04 20:01 | 49.12789 | 70.14102 | 32092 ft | 427 kts | 316° |
| 2026-05-04 20:02 | 49.16445 | 70.09040 | 32086 ft | 427 kts | 316° |
| 2026-05-04 20:02 | 49.20846 | 70.02960 | 32087 ft | 426 kts | 316° |
| 2026-05-04 20:03 | 49.25241 | 69.96862 | 32077 ft | 426 kts | 315° |
| 2026-05-04 20:03 | 49.29621 | 69.90768 | 32071 ft | 426 kts | 315° |
| 2026-05-04 20:04 | 49.33994 | 69.84646 | 32072 ft | 426 kts | 315° |
| 2026-05-04 20:04 | 49.38377 | 69.78506 | 32075 ft | 427 kts | 315° |
| 2026-05-04 20:05 | 49.42775 | 69.72361 | 32081 ft | 427 kts | 315° |
| 2026-05-04 20:05 | 49.47158 | 69.66208 | 32081 ft | 426 kts | 315° |
| 2026-05-04 20:06 | 49.51532 | 69.60051 | 32081 ft | 427 kts | 315° |
| 2026-05-04 20:06 | 49.55908 | 69.53878 | 32084 ft | 426 kts | 315° |
| 2026-05-04 20:07 | 49.60281 | 69.47698 | 32076 ft | 426 kts | 315° |
| 2026-05-04 20:07 | 49.64644 | 69.41508 | 32089 ft | 426 kts | 315° |
| 2026-05-04 20:08 | 49.68999 | 69.35292 | 32085 ft | 426 kts | 315° |
| 2026-05-04 20:08 | 49.73356 | 69.29080 | 32074 ft | 426 kts | 315° |
| 2026-05-04 20:09 | 49.77713 | 69.22855 | 32079 ft | 426 kts | 315° |
| 2026-05-04 20:09 | 49.82064 | 69.16622 | 32072 ft | 427 kts | 315° |
| 2026-05-04 20:10 | 49.86423 | 69.10367 | 32078 ft | 427 kts | 314° |
| 2026-05-04 20:10 | 49.90776 | 69.04090 | 32082 ft | 427 kts | 315° |
| 2026-05-04 20:11 | 49.95121 | 68.97795 | 32088 ft | 427 kts | 314° |
| 2026-05-04 20:11 | 49.99477 | 68.91502 | 32087 ft | 427 kts | 314° |
| 2026-05-04 20:12 | 50.03827 | 68.85193 | 32102 ft | 427 kts | 314° |
| 2026-05-04 20:12 | 50.08166 | 68.78883 | 32100 ft | 428 kts | 314° |
| 2026-05-04 20:13 | 50.12505 | 68.72549 | 32102 ft | 427 kts | 314° |
| 2026-05-04 20:13 | 50.16825 | 68.66232 | 32115 ft | 426 kts | 314° |
| 2026-05-04 20:14 | 50.21143 | 68.59889 | 32101 ft | 426 kts | 314° |
| 2026-05-04 20:14 | 50.25447 | 68.53543 | 32091 ft | 426 kts | 314° |
| 2026-05-04 20:15 | 50.29727 | 68.47227 | 32085 ft | 426 kts | 314° |
| 2026-05-04 20:15 | 50.34063 | 68.40832 | 32086 ft | 426 kts | 314° |
| 2026-05-04 20:16 | 50.38345 | 68.34488 | 32079 ft | 426 kts | 314° |
| 2026-05-04 20:16 | 50.42649 | 68.28071 | 32072 ft | 426 kts | 314° |
| 2026-05-04 20:17 | 50.46949 | 68.21646 | 32087 ft | 427 kts | 314° |
| 2026-05-04 20:17 | 50.51238 | 68.15222 | 32087 ft | 426 kts | 314° |
| 2026-05-04 20:18 | 50.55492 | 68.08750 | 32080 ft | 425 kts | 313° |
| 2026-05-04 20:18 | 50.59674 | 68.02165 | 32072 ft | 425 kts | 312° |
| 2026-05-04 20:19 | 50.63833 | 67.95539 | 32062 ft | 426 kts | 311° |
| 2026-05-04 20:19 | 50.68013 | 67.88899 | 32055 ft | 426 kts | 312° |
| 2026-05-04 20:20 | 50.72169 | 67.82310 | 32059 ft | 427 kts | 312° |
| 2026-05-04 20:20 | 50.76359 | 67.75661 | 32064 ft | 426 kts | 312° |
| 2026-05-04 20:21 | 50.80548 | 67.68999 | 32062 ft | 427 kts | 311° |
| 2026-05-04 20:21 | 50.86801 | 67.58992 | 32055 ft | 426 kts | 311° |
| 2026-05-04 20:22 | 50.90968 | 67.52308 | 32043 ft | 426 kts | 311° |
| 2026-05-04 20:22 | 50.95127 | 67.45610 | 32043 ft | 426 kts | 311° |
| 2026-05-04 20:23 | 50.99282 | 67.38915 | 32040 ft | 426 kts | 311° |
| 2026-05-04 20:23 | 51.03441 | 67.32187 | 32032 ft | 426 kts | 311° |
| 2026-05-04 20:24 | 51.07588 | 67.25458 | 32019 ft | 427 kts | 311° |
| 2026-05-04 20:24 | 51.11736 | 67.18707 | 32020 ft | 426 kts | 311° |
| 2026-05-04 20:25 | 51.15878 | 67.11960 | 32009 ft | 426 kts | 311° |
| 2026-05-04 20:25 | 51.20020 | 67.05203 | 32010 ft | 426 kts | 310° |
| 2026-05-04 20:26 | 51.24148 | 66.98427 | 32018 ft | 426 kts | 310° |
| 2026-05-04 20:26 | 51.28272 | 66.91623 | 32020 ft | 426 kts | 310° |
| 2026-05-04 20:27 | 51.32395 | 66.84819 | 32018 ft | 426 kts | 311° |
| 2026-05-04 20:27 | 51.36519 | 66.78004 | 32014 ft | 426 kts | 310° |
| 2026-05-04 20:28 | 51.40631 | 66.71181 | 32010 ft | 425 kts | 310° |
| 2026-05-04 20:28 | 51.44734 | 66.64367 | 32001 ft | 425 kts | 310° |
| 2026-05-04 20:29 | 51.48836 | 66.57536 | 32002 ft | 425 kts | 310° |
| 2026-05-04 20:29 | 51.52924 | 66.50694 | 31997 ft | 425 kts | 309° |
| 2026-05-04 20:30 | 51.57016 | 66.43839 | 32002 ft | 425 kts | 309° |
| 2026-05-04 20:30 | 51.61098 | 66.36976 | 32006 ft | 424 kts | 309° |
| 2026-05-04 20:31 | 51.65173 | 66.30100 | 32001 ft | 424 kts | 309° |
| 2026-05-04 20:31 | 51.69208 | 66.23268 | 31985 ft | 423 kts | 309° |
| 2026-05-04 20:32 | 51.73283 | 66.16341 | 31985 ft | 423 kts | 308° |
| 2026-05-04 20:32 | 51.77300 | 66.09500 | 31979 ft | 423 kts | 309° |
| 2026-05-04 20:33 | 51.81350 | 66.02600 | 31981 ft | 423 kts | 309° |
| 2026-05-04 20:33 | 51.85392 | 65.95700 | 31987 ft | 423 kts | 309° |
| 2026-05-04 20:34 | 51.89429 | 65.88775 | 31985 ft | 422 kts | 308° |
| 2026-05-04 20:34 | 51.93450 | 65.81851 | 31976 ft | 421 kts | 308° |
| 2026-05-04 20:35 | 51.97465 | 65.74932 | 31970 ft | 421 kts | 309° |
| 2026-05-04 20:35 | 52.01483 | 65.67999 | 31966 ft | 422 kts | 308° |
| 2026-05-04 20:36 | 52.05493 | 65.61050 | 31963 ft | 422 kts | 308° |
| 2026-05-04 20:36 | 52.09498 | 65.54078 | 31955 ft | 421 kts | 308° |
| 2026-05-04 20:37 | 52.13493 | 65.47114 | 31955 ft | 421 kts | 308° |
| 2026-05-04 20:37 | 52.17489 | 65.40121 | 31954 ft | 421 kts | 308° |
| 2026-05-04 20:38 | 52.21478 | 65.33118 | 31956 ft | 421 kts | 308° |
| 2026-05-04 20:38 | 52.25462 | 65.26109 | 31948 ft | 420 kts | 308° |
| 2026-05-04 20:39 | 52.29435 | 65.19101 | 31946 ft | 421 kts | 307° |
| 2026-05-04 20:39 | 52.33388 | 65.12136 | 31947 ft | 420 kts | 307° |
| 2026-05-04 20:40 | 52.37358 | 65.05106 | 31929 ft | 421 kts | 307° |
| 2026-05-04 20:40 | 52.41322 | 64.98057 | 31915 ft | 421 kts | 307° |
| 2026-05-04 20:41 | 52.45286 | 64.90998 | 31922 ft | 421 kts | 307° |
| 2026-05-04 20:41 | 52.49248 | 64.83925 | 31920 ft | 420 kts | 307° |
| 2026-05-04 20:42 | 52.52555 | 64.77987 | 31910 ft | 420 kts | 307° |
| 2026-05-04 20:42 | 52.56466 | 64.70950 | 31894 ft | 420 kts | 306° |
| 2026-05-04 20:43 | 52.60399 | 64.63851 | 31889 ft | 420 kts | 307° |
| 2026-05-04 20:43 | 52.64331 | 64.56744 | 31884 ft | 420 kts | 307° |
| 2026-05-04 20:44 | 52.68282 | 64.49572 | 31877 ft | 420 kts | 306° |
| 2026-05-04 20:44 | 52.72186 | 64.42472 | 31882 ft | 420 kts | 307° |
| 2026-05-04 20:45 | 52.76117 | 64.35320 | 31877 ft | 420 kts | 306° |
| 2026-05-04 20:45 | 52.80035 | 64.28154 | 31879 ft | 421 kts | 306° |
| 2026-05-04 20:46 | 52.83954 | 64.20950 | 31878 ft | 421 kts | 306° |
| 2026-05-04 20:46 | 52.87861 | 64.13741 | 31882 ft | 421 kts | 306° |
| 2026-05-04 20:47 | 52.91767 | 64.06543 | 31889 ft | 420 kts | 306° |
| 2026-05-04 20:47 | 52.95677 | 63.99324 | 31892 ft | 421 kts | 306° |
| 2026-05-04 20:48 | 52.99579 | 63.92081 | 31892 ft | 421 kts | 305° |
| 2026-05-04 20:48 | 53.03481 | 63.84816 | 31890 ft | 421 kts | 305° |
| 2026-05-04 20:49 | 53.07371 | 63.77551 | 31889 ft | 421 kts | 305° |
| 2026-05-04 20:49 | 53.11251 | 63.70275 | 31890 ft | 420 kts | 305° |
| 2026-05-04 20:50 | 53.15126 | 63.62979 | 31890 ft | 420 kts | 305° |
| 2026-05-04 20:50 | 53.19270 | 63.56050 | 31888 ft | 429 kts | 316° |
| 2026-05-04 20:51 | 53.24428 | 63.50796 | 31885 ft | 436 kts | 323° |
| 2026-05-04 20:51 | 53.29702 | 63.45781 | 31884 ft | 436 kts | 323° |
| 2026-05-04 20:52 | 53.34974 | 63.40723 | 31883 ft | 436 kts | 323° |
| 2026-05-04 20:52 | 53.40233 | 63.35660 | 31883 ft | 436 kts | 323° |
| 2026-05-04 20:53 | 53.45496 | 63.30587 | 31880 ft | 436 kts | 323° |
| 2026-05-04 20:53 | 53.50753 | 63.25501 | 31875 ft | 436 kts | 322° |
| 2026-05-04 20:54 | 53.56010 | 63.20410 | 31880 ft | 436 kts | 322° |
| 2026-05-04 20:54 | 53.61259 | 63.15303 | 31880 ft | 436 kts | 322° |
| 2026-05-04 20:55 | 53.66508 | 63.10184 | 31873 ft | 436 kts | 322° |
| 2026-05-04 20:55 | 53.71765 | 63.05042 | 31875 ft | 437 kts | 322° |
| 2026-05-04 20:56 | 53.77026 | 62.99884 | 31869 ft | 437 kts | 321° |
| 2026-05-04 20:56 | 53.82276 | 62.94719 | 31868 ft | 436 kts | 322° |
| 2026-05-04 20:57 | 53.87512 | 62.89542 | 31871 ft | 437 kts | 322° |
| 2026-05-04 20:57 | 53.92776 | 62.84341 | 31875 ft | 437 kts | 322° |
| 2026-05-04 20:58 | 53.98029 | 62.79126 | 31878 ft | 437 kts | 321° |
| 2026-05-04 20:58 | 54.03277 | 62.73897 | 31879 ft | 438 kts | 321° |
| 2026-05-04 20:59 | 54.08533 | 62.68670 | 31878 ft | 439 kts | 323° |
| 2026-05-04 20:59 | 54.14183 | 62.64376 | 31878 ft | 446 kts | 329° |
| 2026-05-04 21:00 | 54.19919 | 62.60273 | 31877 ft | 446 kts | 329° |
| 2026-05-04 21:00 | 54.25651 | 62.56170 | 31879 ft | 448 kts | 328° |
| 2026-05-04 21:01 | 54.31377 | 62.52046 | 31873 ft | 447 kts | 328° |
| 2026-05-04 21:01 | 54.37109 | 62.47900 | 31878 ft | 446 kts | 328° |
| 2026-05-04 21:02 | 54.42828 | 62.43735 | 31881 ft | 446 kts | 328° |
| 2026-05-04 21:02 | 54.48555 | 62.39567 | 31890 ft | 447 kts | 328° |
| 2026-05-04 21:03 | 54.54280 | 62.35389 | 31895 ft | 447 kts | 328° |
| 2026-05-04 21:03 | 54.60006 | 62.31173 | 31879 ft | 447 kts | 328° |
| 2026-05-04 21:04 | 54.65728 | 62.26956 | 31886 ft | 447 kts | 328° |
| 2026-05-04 21:04 | 54.71453 | 62.22742 | 31900 ft | 446 kts | 328° |
| 2026-05-04 21:05 | 54.77170 | 62.18543 | 31899 ft | 446 kts | 328° |
| 2026-05-04 21:05 | 54.82868 | 62.14338 | 31886 ft | 445 kts | 328° |
| 2026-05-04 21:06 | 54.88559 | 62.10115 | 31887 ft | 444 kts | 328° |
| 2026-05-04 21:06 | 54.94235 | 62.05882 | 31887 ft | 444 kts | 328° |
| 2026-05-04 21:07 | 54.99868 | 62.01681 | 31881 ft | 443 kts | 327° |
| 2026-05-04 21:07 | 55.05538 | 61.97420 | 31737 ft | 445 kts | 328° |
| 2026-05-04 21:08 | 55.08388 | 61.95270 | 31482 ft | 447 kts | 328° |
| 2026-05-04 21:08 | 55.11252 | 61.93104 | 31232 ft | 448 kts | 328° |
| 2026-05-04 21:08 | 55.14114 | 61.90939 | 30983 ft | 448 kts | 328° |
| 2026-05-04 21:08 | 55.16981 | 61.88779 | 30731 ft | 449 kts | 328° |
| 2026-05-04 21:09 | 55.19851 | 61.86615 | 30482 ft | 449 kts | 328° |
| 2026-05-04 21:09 | 55.22724 | 61.84443 | 30234 ft | 450 kts | 327° |
| 2026-05-04 21:09 | 55.25588 | 61.82282 | 29759 ft | 446 kts | 327° |
| 2026-05-04 21:09 | 55.28428 | 61.80131 | 29138 ft | 443 kts | 327° |
| 2026-05-04 21:10 | 55.31254 | 61.77979 | 28536 ft | 441 kts | 327° |
| 2026-05-04 21:10 | 55.34063 | 61.75834 | 27950 ft | 439 kts | 327° |
| 2026-05-04 21:10 | 55.36842 | 61.73710 | 27364 ft | 436 kts | 328° |
| 2026-05-04 21:10 | 55.39615 | 61.71586 | 26779 ft | 433 kts | 328° |
| 2026-05-04 21:11 | 55.42376 | 61.69469 | 26217 ft | 430 kts | 328° |
| 2026-05-04 21:11 | 55.45113 | 61.67367 | 25650 ft | 427 kts | 328° |
| 2026-05-04 21:11 | 55.47830 | 61.65273 | 25088 ft | 425 kts | 328° |
| 2026-05-04 21:11 | 55.50528 | 61.63190 | 24528 ft | 422 kts | 328° |
| 2026-05-04 21:12 | 55.53209 | 61.61118 | 23971 ft | 419 kts | 328° |
| 2026-05-04 21:12 | 55.55870 | 61.59060 | 23432 ft | 416 kts | 329° |
| 2026-05-04 21:12 | 55.58513 | 61.57018 | 22889 ft | 412 kts | 329° |
| 2026-05-04 21:12 | 55.61129 | 61.55005 | 22400 ft | 407 kts | 330° |
| 2026-05-04 21:13 | 55.63710 | 61.53021 | 21916 ft | 401 kts | 331° |
| 2026-05-04 21:13 | 55.66246 | 61.51072 | 21459 ft | 394 kts | 330° |
| 2026-05-04 21:13 | 55.68729 | 61.49132 | 21011 ft | 388 kts | 330° |
| 2026-05-04 21:13 | 55.71175 | 61.47207 | 20581 ft | 382 kts | 330° |
| 2026-05-04 21:14 | 55.73599 | 61.45308 | 20152 ft | 379 kts | 331° |
| 2026-05-04 21:14 | 55.75995 | 61.43435 | 19733 ft | 374 kts | 331° |
| 2026-05-04 21:14 | 55.78367 | 61.41596 | 19325 ft | 370 kts | 332° |
| 2026-05-04 21:14 | 55.80724 | 61.39767 | 18926 ft | 368 kts | 332° |
| 2026-05-04 21:15 | 55.83055 | 61.37942 | 18505 ft | 365 kts | 332° |
| 2026-05-04 21:15 | 55.85370 | 61.36108 | 18087 ft | 363 kts | 332° |
| 2026-05-04 21:15 | 55.87665 | 61.34286 | 17667 ft | 360 kts | 333° |
| 2026-05-04 21:15 | 55.89961 | 61.32512 | 17221 ft | 359 kts | 337° |
| 2026-05-04 21:16 | 55.92367 | 61.31323 | 16808 ft | 359 kts | 346° |
| 2026-05-04 21:16 | 55.94812 | 61.30457 | 16368 ft | 357 kts | 346° |
| 2026-05-04 21:16 | 55.97246 | 61.29600 | 15908 ft | 355 kts | 346° |
| 2026-05-04 21:16 | 55.99667 | 61.28746 | 15456 ft | 354 kts | 346° |
| 2026-05-04 21:17 | 56.02086 | 61.27888 | 15011 ft | 352 kts | 346° |
| 2026-05-04 21:17 | 56.04446 | 61.27029 | 14550 ft | 350 kts | 347° |
| 2026-05-04 21:17 | 56.06821 | 61.26182 | 14115 ft | 348 kts | 347° |
| 2026-05-04 21:17 | 56.09215 | 61.25344 | 13622 ft | 350 kts | 347° |
| 2026-05-04 21:18 | 56.11639 | 61.24489 | 12964 ft | 357 kts | 346° |
| 2026-05-04 21:18 | 56.14072 | 61.23603 | 12320 ft | 356 kts | 347° |
| 2026-05-04 21:18 | 56.16492 | 61.22732 | 11692 ft | 355 kts | 348° |
| 2026-05-04 21:18 | 56.18924 | 61.21862 | 11068 ft | 354 kts | 345° |
| 2026-05-04 21:19 | 56.21334 | 61.20953 | 10435 ft | 354 kts | 349° |
| 2026-05-04 21:19 | 56.23746 | 61.20084 | 10149 ft | 347 kts | 349° |
| 2026-05-04 21:19 | 56.26040 | 61.19275 | 10009 ft | 328 kts | 349° |
| 2026-05-04 21:19 | 56.28239 | 61.18505 | 9861 ft | 315 kts | 348° |
| 2026-05-04 21:20 | 56.29672 | 61.17993 | 9783 ft | 307 kts | 348° |
| 2026-05-04 21:20 | 56.31729 | 61.17253 | 9655 ft | 296 kts | 347° |
| 2026-05-04 21:20 | 56.34331 | 61.16308 | 9476 ft | 280 kts | 347° |
| 2026-05-04 21:20 | 56.35607 | 61.15841 | 9392 ft | 273 kts | 347° |
| 2026-05-04 21:21 | 56.37454 | 61.15384 | 9248 ft | 263 kts | 353° |
| 2026-05-04 21:21 | 56.39237 | 61.15044 | 9125 ft | 252 kts | 353° |
| 2026-05-04 21:21 | 56.40945 | 61.14728 | 8875 ft | 248 kts | 354° |
| 2026-05-04 21:21 | 56.42657 | 61.14409 | 8572 ft | 247 kts | 353° |
| 2026-05-04 21:22 | 56.44352 | 61.14097 | 8255 ft | 244 kts | 353° |
| 2026-05-04 21:22 | 56.46035 | 61.13777 | 7931 ft | 243 kts | 353° |
| 2026-05-04 21:22 | 56.47712 | 61.13468 | 7587 ft | 242 kts | 353° |
| 2026-05-04 21:22 | 56.49375 | 61.13154 | 7291 ft | 239 kts | 352° |
| 2026-05-04 21:23 | 56.51035 | 61.12839 | 6989 ft | 238 kts | 352° |
| 2026-05-04 21:23 | 56.52669 | 61.12527 | 6724 ft | 234 kts | 353° |
| 2026-05-04 21:23 | 56.54287 | 61.12442 | 6453 ft | 232 kts | 359° |
| 2026-05-04 21:23 | 56.55892 | 61.12466 | 6207 ft | 230 kts | 356° |
| 2026-05-04 21:24 | 56.57497 | 61.12474 | 5952 ft | 229 kts | 357° |
| 2026-05-04 21:24 | 56.59082 | 61.12485 | 5727 ft | 229 kts | 358° |
| 2026-05-04 21:24 | 56.60682 | 61.12490 | 5564 ft | 229 kts | 358° |
| 2026-05-04 21:24 | 56.62266 | 61.12492 | 5344 ft | 228 kts | 358° |
| 2026-05-04 21:25 | 56.63855 | 61.12502 | 5092 ft | 228 kts | 358° |
| 2026-05-04 21:25 | 56.65440 | 61.12333 | 4833 ft | 228 kts | 352° |
| 2026-05-04 21:25 | 56.67016 | 61.12057 | 4559 ft | 230 kts | 352° |
| 2026-05-04 21:25 | 56.68624 | 61.11782 | 4325 ft | 229 kts | 352° |
| 2026-05-04 21:26 | 56.70186 | 61.11525 | 4045 ft | 221 kts | 352° |
| 2026-05-04 21:26 | 56.71635 | 61.10989 | 3777 ft | 205 kts | 332° |
| 2026-05-04 21:26 | 56.72627 | 61.09385 | 3579 ft | 188 kts | 302° |
| 2026-05-04 21:26 | 56.73025 | 61.07197 | 3393 ft | 176 kts | 273° |
| 2026-05-04 21:27 | 56.73112 | 61.05048 | 3195 ft | 167 kts | 275° |
| 2026-05-04 21:27 | 56.73202 | 61.02968 | 2981 ft | 161 kts | 274° |
| 2026-05-04 21:27 | 56.73291 | 61.00976 | 2764 ft | 159 kts | 272° |
| 2026-05-04 21:27 | 56.73383 | 60.98925 | 2542 ft | 164 kts | 271° |
| 2026-05-04 21:28 | 56.73466 | 60.96830 | 2340 ft | 168 kts | 271° |
| 2026-05-04 21:28 | 56.73554 | 60.94688 | 2115 ft | 169 kts | 271° |
| 2026-05-04 21:28 | 56.73639 | 60.92599 | 1903 ft | 160 kts | 274° |
| 2026-05-04 21:28 | 56.73719 | 60.90621 | 1690 ft | 154 kts | 275° |
| 2026-05-04 21:29 | 56.73795 | 60.88693 | 1479 ft | 152 kts | 274° |
| 2026-05-04 21:29 | 56.73873 | 60.86787 | 1286 ft | 150 kts | 274° |
| 2026-05-04 21:29 | 56.73955 | 60.84892 | 1086 ft | 150 kts | 274° |
| 2026-05-04 21:29 | 56.74039 | 60.83005 | 898 ft | 149 kts | 274° |
| 2026-05-04 21:30 | 56.74112 | 60.81160 | 795 ft | 137 kts | 274° |
| 2026-05-04 21:30 | 56.74170 | 60.79624 | 774 ft | 90 kts | 274° |
| 2026-05-04 21:30 | 56.74192 | 60.78983 | 774 ft | 30 kts | 274° |
| 2026-05-04 21:30 | 56.74209 | 60.78619 | 774 ft | 28 kts | 275° |
| 2026-05-04 21:31 | 56.74225 | 60.78264 | 774 ft | 8 kts | 274° |
| 2026-05-04 21:31 | 56.74229 | 60.78163 | 774 ft | 10 kts | 276° |
| 2026-05-04 21:31 | 56.74264 | 60.78043 | 774 ft | 11 kts | 327° |
| 2026-05-04 21:32 | 56.74335 | 60.78061 | 774 ft | 11 kts | 21° |
| 2026-05-04 21:32 | 56.74420 | 60.78128 | 774 ft | 14 kts | 22° |
| 2026-05-04 21:32 | 56.74508 | 60.78151 | 774 ft | 12 kts | 3° |
| 2026-05-04 21:32 | 56.74591 | 60.78150 | 774 ft | 11 kts | 358° |
| 2026-05-04 21:33 | 56.74650 | 60.78182 | 774 ft | 8 kts | 65° |
| 2026-05-04 21:33 | 56.74662 | 60.78330 | 774 ft | 15 kts | 89° |
| 2026-05-04 21:33 | 56.74661 | 60.78517 | 774 ft | 14 kts | 90° |
| 2026-05-04 21:33 | 56.74661 | 60.78693 | 774 ft | 14 kts | 90° |
| 2026-05-04 21:34 | 56.74661 | 60.78923 | 774 ft | 21 kts | 90° |
| 2026-05-04 21:34 | 56.74662 | 60.79116 | 774 ft | 9 kts | 84° |
| 2026-05-04 21:34 | 56.74699 | 60.79188 | 774 ft | 8 kts | 24° |
| 2026-05-04 21:34 | 56.74730 | 60.79281 | 774 ft | 12 kts | 81° |
| 2026-05-04 21:35 | 56.74733 | 60.79476 | 774 ft | 17 kts | 90° |
| 2026-05-04 21:35 | 56.74787 | 60.79571 | 774 ft | 11 kts | 2° |
| 2026-05-04 21:35 | 56.74841 | 60.79585 | 774 ft | 6 kts | 26° |
| 2026-05-04 21:35 | 56.74872 | 60.79619 | 774 ft | 5 kts | 24° |
| 2026-05-04 21:36 | 56.74897 | 60.79623 | 774 ft | 3 kts | 358° |
| 2026-05-04 21:36 | 56.74913 | 60.79621 | 774 ft | 2 kts | 0° |
| 2026-05-04 21:36 | 56.74919 | 60.79621 | 774 ft | 0 kts | 0° |
| 2026-05-04 21:36 | 56.74921 | 60.79621 | 774 ft | 0 kts | 0° |